createdAt,value
2023-04-03T00:03:31.412Z,73.00
2023-04-03T00:08:35.224Z,74.10
2023-04-03T00:13:38.860Z,73.30
2023-04-03T00:18:41.182Z,73.30
2023-04-03T00:23:44.676Z,72.40
2023-04-03T00:28:48.353Z,73.20
2023-04-03T00:33:50.473Z,73.60
2023-04-03T00:38:54.106Z,74.10
2023-04-03T00:43:56.302Z,75.30
2023-04-03T00:48:58.528Z,75.90
2023-04-03T00:54:05.750Z,76.80
2023-04-03T00:59:11.558Z,77.50
2023-04-03T01:04:29.138Z,78.90
2023-04-03T01:09:34.009Z,78.30
2023-04-03T01:14:36.306Z,78.00
2023-04-03T01:19:49.023Z,76.40
2023-04-03T01:24:52.605Z,75.60
2023-04-03T01:29:55.172Z,75.30
2023-04-03T01:34:58.985Z,74.50
2023-04-03T01:40:01.321Z,74.50
2023-04-03T01:45:03.860Z,74.00
2023-04-03T01:50:08.850Z,75.00
2023-04-03T01:55:10.965Z,75.70
2023-04-03T02:00:14.250Z,76.20
2023-04-03T02:05:18.081Z,78.50
2023-04-03T02:10:20.270Z,79.60
2023-04-03T02:15:22.392Z,78.70
2023-04-03T02:20:26.300Z,78.50
2023-04-03T02:25:28.751Z,77.50
2023-04-03T02:30:30.873Z,77.60
2023-04-03T02:35:34.362Z,77.90
2023-04-03T02:40:36.807Z,79.80
2023-04-03T02:45:39.127Z,79.30
2023-04-03T02:50:42.805Z,80.40
2023-04-03T02:55:45.541Z,78.80
2023-04-03T03:00:50.803Z,78.50
2023-04-03T03:06:04.087Z,81.20
2023-04-03T03:11:06.660Z,82.40
2023-04-03T03:16:08.963Z,79.60
2023-04-03T03:21:12.620Z,79.00
2023-04-03T03:26:14.887Z,78.70
2023-04-03T03:31:17.028Z,78.70
2023-04-03T03:36:20.659Z,77.90
2023-04-03T03:41:24.271Z,77.50
2023-04-03T03:46:26.438Z,77.50
2023-04-03T03:51:29.966Z,77.80
2023-04-03T03:56:32.289Z,77.70
2023-04-03T04:01:34.738Z,77.50
2023-04-03T04:06:38.277Z,78.00
2023-04-03T04:11:40.501Z,78.30
2023-04-03T04:16:42.604Z,78.10
2023-04-03T04:21:46.083Z,77.90
2023-04-03T04:26:48.207Z,78.10
2023-04-03T04:31:50.432Z,80.00
2023-04-03T04:36:54.002Z,81.00
2023-04-03T04:41:56.344Z,80.90
2023-04-03T04:46:58.465Z,80.20
2023-04-03T04:52:02.053Z,80.90
2023-04-03T04:57:05.870Z,80.80
2023-04-03T05:02:08.078Z,80.10
2023-04-03T05:07:11.794Z,79.30
2023-04-03T05:12:14.001Z,79.20
2023-04-03T05:17:16.258Z,79.30
2023-04-03T05:22:19.801Z,79.50
2023-04-03T05:27:23.034Z,79.70
2023-04-03T05:32:25.830Z,79.30
2023-04-03T05:37:29.882Z,80.10
2023-04-03T05:42:32.316Z,80.70
2023-04-03T05:47:34.461Z,80.30
2023-04-03T05:52:41.238Z,78.90
2023-04-03T05:57:43.463Z,77.60
2023-04-03T06:02:45.751Z,76.70
2023-04-03T06:07:49.427Z,74.60
2023-04-03T06:12:51.985Z,73.60
2023-04-03T06:17:54.272Z,72.50
2023-04-03T06:22:58.141Z,71.00
2023-04-03T06:28:00.215Z,71.40
2023-04-03T06:33:02.555Z,71.00
2023-04-03T06:38:06.409Z,66.90
2023-04-03T06:43:08.553Z,66.90
2023-04-03T06:48:10.753Z,64.20
2023-04-03T06:53:14.268Z,64.60
2023-04-03T06:58:16.961Z,62.40
2023-04-03T07:03:21.017Z,62.60
2023-04-03T07:08:24.556Z,61.00
2023-04-03T07:13:26.763Z,56.20
2023-04-03T07:18:28.920Z,55.50
2023-04-03T07:23:32.672Z,56.90
2023-04-03T07:28:35.316Z,53.50
2023-04-03T07:33:38.322Z,50.60
2023-04-03T07:38:42.110Z,51.30
2023-04-03T07:43:44.322Z,48.20
2023-04-03T07:48:46.458Z,47.70
2023-04-03T07:53:50.183Z,50.50
2023-04-03T07:58:52.514Z,50.90
2023-04-03T08:03:54.893Z,49.10
2023-04-03T08:08:58.870Z,46.10
2023-04-03T08:14:01.081Z,45.40
2023-04-03T08:19:03.882Z,46.00
2023-04-03T08:24:11.067Z,46.20
2023-04-03T08:29:13.287Z,46.00
2023-04-03T08:34:15.436Z,44.10
2023-04-03T08:39:19.095Z,41.80
2023-04-03T08:44:26.518Z,42.50
2023-04-03T08:49:35.649Z,42.50
2023-04-03T08:54:49.574Z,41.20
2023-04-03T08:59:52.003Z,42.50
2023-04-03T09:04:54.463Z,44.70
2023-04-03T09:10:00.356Z,40.60
2023-04-03T09:15:16.431Z,41.50
2023-04-03T09:20:26.157Z,41.90
2023-04-03T09:25:34.310Z,45.60
2023-04-03T09:30:37.278Z,41.90
2023-04-03T09:35:48.259Z,38.90
2023-04-03T09:41:06.178Z,41.50
2023-04-03T09:46:30.816Z,38.70
2023-04-03T09:51:34.496Z,35.90
2023-04-03T09:56:38.757Z,41.20
2023-04-03T10:01:44.664Z,41.40
2023-04-03T10:06:49.652Z,40.00
2023-04-03T10:12:05.375Z,43.80
2023-04-03T10:17:19.922Z,41.90
2023-04-03T10:22:36.810Z,36.30
2023-04-03T10:27:50.063Z,35.60
2023-04-03T10:33:06.868Z,33.60
2023-04-03T10:38:19.113Z,37.00
2023-04-03T10:43:35.379Z,37.60
2023-04-03T10:49:00.742Z,35.10
2023-04-03T10:54:11.916Z,37.90
2023-04-03T10:59:24.492Z,31.00
2023-04-03T11:04:32.329Z,29.60
2023-04-03T11:09:39.483Z,32.60
2023-04-03T11:14:43.918Z,31.30
2023-04-03T11:19:55.685Z,33.50
2023-04-03T11:25:08.194Z,31.60
2023-04-03T11:30:19.452Z,32.10
2023-04-03T11:35:22.817Z,35.00
2023-04-03T11:40:29.313Z,32.40
2023-04-03T11:45:38.152Z,31.30
2023-04-03T11:50:46.004Z,33.60
2023-04-03T11:56:00.065Z,36.80
2023-04-03T12:01:12.017Z,33.80
2023-04-03T12:06:53.819Z,35.20
2023-04-03T12:11:59.900Z,33.00
2023-04-03T12:17:03.612Z,34.80
2023-04-03T12:22:13.722Z,34.90
2023-04-03T12:27:26.484Z,36.70
2023-04-03T12:32:58.947Z,38.60
2023-04-03T12:38:38.593Z,37.90
2023-04-03T12:43:48.794Z,36.20
2023-04-03T12:48:57.967Z,32.60
2023-04-03T12:54:04.780Z,32.10
2023-04-03T12:59:21.929Z,35.50
2023-04-03T13:04:29.421Z,36.30
2023-04-03T13:09:32.937Z,36.90
2023-04-03T13:14:35.369Z,34.60
2023-04-03T13:19:39.539Z,36.80
2023-04-03T13:24:42.516Z,37.70
2023-04-03T13:29:45.337Z,35.80
2023-04-03T13:34:49.776Z,36.90
2023-04-03T13:40:03.147Z,37.00
2023-04-03T13:45:20.037Z,38.00
2023-04-03T13:50:26.021Z,38.70
2023-04-03T13:55:31.226Z,37.20
2023-04-03T14:00:40.283Z,36.90
2023-04-03T14:05:46.219Z,38.60
2023-04-03T14:10:50.703Z,36.30
2023-04-03T14:15:53.882Z,38.90
2023-04-03T14:20:58.751Z,39.70
2023-04-03T14:26:02.723Z,39.80
2023-04-03T14:31:05.069Z,39.50
2023-04-03T14:36:14.964Z,40.10
2023-04-03T14:41:20.554Z,40.10
2023-04-03T14:46:33.650Z,40.30
2023-04-03T14:51:43.284Z,40.40
2023-04-03T14:56:45.624Z,40.40
2023-04-03T15:01:48.495Z,40.40
2023-04-03T15:06:53.152Z,40.00
2023-04-03T15:11:58.297Z,40.50
2023-04-03T15:17:00.772Z,40.70
2023-04-03T15:22:04.386Z,40.80
2023-04-03T15:27:06.947Z,40.50
2023-04-03T15:32:10.031Z,39.90
2023-04-03T15:37:14.045Z,40.20
2023-04-03T15:42:16.215Z,39.90
2023-04-03T15:47:18.343Z,40.90
2023-04-03T15:52:21.902Z,41.20
2023-04-03T15:57:24.032Z,41.40
2023-04-03T16:02:28.479Z,41.70
2023-04-03T16:07:32.282Z,40.80
2023-04-03T16:12:34.832Z,40.80
2023-04-03T16:17:39.801Z,41.30
2023-04-03T16:22:44.377Z,42.00
2023-04-03T16:27:46.528Z,42.30
2023-04-03T16:32:50.454Z,42.60
2023-04-03T16:37:54.104Z,42.90
2023-04-03T16:42:56.238Z,43.20
2023-04-03T16:48:01.415Z,43.50
2023-04-03T16:53:05.112Z,43.70
2023-04-03T16:58:09.562Z,44.60
2023-04-03T17:03:12.045Z,44.00
2023-04-03T17:08:16.923Z,44.10
2023-04-03T17:13:19.046Z,44.40
2023-04-03T17:18:21.165Z,44.70
2023-04-03T17:23:24.957Z,44.80
2023-04-03T17:28:27.053Z,45.10
2023-04-03T17:33:30.520Z,45.20
2023-04-03T17:38:34.647Z,45.40
2023-04-03T17:43:37.063Z,45.60
2023-04-03T17:48:41.272Z,45.70
2023-04-03T17:53:44.899Z,45.90
2023-04-03T17:58:50.805Z,46.10
2023-04-03T18:03:55.681Z,46.30
2023-04-03T18:09:09.840Z,46.50
2023-04-03T18:14:16.626Z,47.10
2023-04-03T18:19:23.343Z,47.10
2023-04-03T18:24:28.234Z,47.30
2023-04-03T18:29:32.419Z,47.60
2023-04-03T18:34:37.836Z,47.90
2023-04-03T18:39:41.490Z,48.20
2023-04-03T18:44:46.596Z,48.50
2023-04-03T18:49:48.999Z,48.70
2023-04-03T18:54:52.561Z,48.80
2023-04-03T18:59:54.725Z,49.10
2023-04-03T19:04:56.963Z,49.30
2023-04-03T19:10:00.948Z,49.60
2023-04-03T19:15:03.130Z,49.90
2023-04-03T19:20:06.176Z,50.20
2023-04-03T19:25:11.260Z,50.50
2023-04-03T19:30:15.445Z,50.90
2023-04-03T19:35:17.790Z,51.10
2023-04-03T19:40:21.315Z,51.30
2023-04-03T19:45:24.016Z,51.60
2023-04-03T19:50:26.318Z,51.80
2023-04-03T19:55:30.604Z,52.00
2023-04-03T20:00:32.907Z,52.40
2023-04-03T20:05:35.126Z,52.40
2023-04-03T20:10:39.152Z,52.70
2023-04-03T20:15:43.035Z,53.00
2023-04-03T20:20:45.431Z,53.10
2023-04-03T20:25:58.028Z,53.40
2023-04-03T20:31:11.755Z,53.70
2023-04-03T20:36:13.971Z,53.90
2023-04-03T20:41:17.663Z,53.90
2023-04-03T20:46:19.891Z,54.30
2023-04-03T20:51:22.517Z,54.20
2023-04-03T20:56:29.460Z,54.40
2023-04-03T21:01:32.227Z,54.80
2023-04-03T21:07:11.923Z,55.00
2023-04-03T21:12:51.327Z,56.20
2023-04-03T21:18:28.732Z,56.30
2023-04-03T21:23:31.731Z,56.30
2023-04-03T21:28:33.860Z,55.60
2023-04-03T21:33:37.603Z,56.80
2023-04-03T21:38:39.747Z,56.50
2023-04-03T21:43:41.848Z,57.00
2023-04-03T21:48:45.521Z,57.20
2023-04-03T21:53:47.644Z,57.80
2023-04-03T21:58:49.890Z,58.00
2023-04-03T22:03:57.521Z,58.50
2023-04-03T22:08:59.586Z,58.80
2023-04-03T22:14:01.640Z,57.90
2023-04-03T22:19:05.139Z,58.10
2023-04-03T22:24:07.638Z,58.60
2023-04-03T22:29:09.827Z,58.30
2023-04-03T22:34:13.529Z,61.10
2023-04-03T22:39:15.679Z,62.40
2023-04-03T22:44:17.827Z,62.30
2023-04-03T22:49:21.353Z,64.50
2023-04-03T22:54:23.452Z,67.10
2023-04-03T22:59:25.562Z,67.70
2023-04-03T23:04:29.075Z,69.70
2023-04-03T23:09:31.204Z,70.70
2023-04-03T23:14:33.309Z,70.40
2023-04-03T23:19:36.876Z,69.90
2023-04-03T23:24:39.098Z,68.90
2023-04-03T23:29:41.215Z,68.60
2023-04-03T23:34:44.818Z,69.40
2023-04-03T23:39:46.993Z,68.30
2023-04-03T23:44:49.031Z,66.30
2023-04-03T23:49:52.617Z,65.40
2023-04-03T23:54:54.721Z,64.40
2023-04-03T23:59:56.821Z,63.20
